sensor_id;sensor_type;location;lat;lon;timestamp;P1;durP1;ratioP1;P2;durP2;ratioP2
84997;SDS011;75314;48.120;11.534;2024-01-11T00:01:08;48.27;;;23.80;;
84997;SDS011;75314;48.120;11.534;2024-01-11T00:03:33;48.23;;;23.70;;
84997;SDS011;75314;48.120;11.534;2024-01-11T00:06:00;46.70;;;24.53;;
84997;SDS011;75314;48.120;11.534;2024-01-11T00:08:25;49.23;;;24.43;;
84997;SDS011;75314;48.120;11.534;2024-01-11T00:10:51;53.10;;;24.10;;
84997;SDS011;75314;48.120;11.534;2024-01-11T00:13:16;49.70;;;25.13;;
84997;SDS011;75314;48.120;11.534;2024-01-11T00:15:41;45.93;;;22.93;;
84997;SDS011;75314;48.120;11.534;2024-01-11T00:18:07;49.40;;;25.27;;
84997;SDS011;75314;48.120;11.534;2024-01-11T00:20:32;49.30;;;24.77;;
84997;SDS011;75314;48.120;11.534;2024-01-11T00:22:57;52.17;;;24.90;;
84997;SDS011;75314;48.120;11.534;2024-01-11T00:25:22;52.90;;;24.03;;
84997;SDS011;75314;48.120;11.534;2024-01-11T00:27:47;50.57;;;25.63;;
84997;SDS011;75314;48.120;11.534;2024-01-11T00:30:13;52.80;;;24.93;;
84997;SDS011;75314;48.120;11.534;2024-01-11T00:32:38;53.00;;;25.53;;
84997;SDS011;75314;48.120;11.534;2024-01-11T00:35:03;47.57;;;23.93;;
84997;SDS011;75314;48.120;11.534;2024-01-11T00:37:29;47.90;;;24.27;;
84997;SDS011;75314;48.120;11.534;2024-01-11T00:39:54;48.30;;;24.37;;
84997;SDS011;75314;48.120;11.534;2024-01-11T00:42:19;53.37;;;25.20;;
84997;SDS011;75314;48.120;11.534;2024-01-11T00:44:44;46.27;;;23.77;;
84997;SDS011;75314;48.120;11.534;2024-01-11T00:47:09;41.87;;;21.63;;
84997;SDS011;75314;48.120;11.534;2024-01-11T00:49:35;42.10;;;21.70;;
84997;SDS011;75314;48.120;11.534;2024-01-11T00:52:00;41.00;;;21.53;;
84997;SDS011;75314;48.120;11.534;2024-01-11T00:54:25;41.17;;;20.87;;
84997;SDS011;75314;48.120;11.534;2024-01-11T00:56:50;42.83;;;21.20;;
84997;SDS011;75314;48.120;11.534;2024-01-11T00:59:15;39.47;;;20.40;;
84997;SDS011;75314;48.120;11.534;2024-01-11T01:01:46;41.90;;;21.00;;
84997;SDS011;75314;48.120;11.534;2024-01-11T01:04:12;37.23;;;19.90;;
84997;SDS011;75314;48.120;11.534;2024-01-11T01:06:37;42.57;;;21.67;;
84997;SDS011;75314;48.120;11.534;2024-01-11T01:09:02;39.73;;;20.57;;
84997;SDS011;75314;48.120;11.534;2024-01-11T01:11:27;46.93;;;23.60;;
84997;SDS011;75314;48.120;11.534;2024-01-11T01:13:53;46.90;;;22.50;;
84997;SDS011;75314;48.120;11.534;2024-01-11T01:16:18;49.83;;;24.10;;
84997;SDS011;75314;48.120;11.534;2024-01-11T01:18:43;53.17;;;24.60;;
84997;SDS011;75314;48.120;11.534;2024-01-11T01:21:08;52.17;;;25.53;;
84997;SDS011;75314;48.120;11.534;2024-01-11T01:23:33;47.77;;;24.23;;
84997;SDS011;75314;48.120;11.534;2024-01-11T01:25:58;48.43;;;24.40;;
84997;SDS011;75314;48.120;11.534;2024-01-11T01:28:24;53.40;;;24.83;;
84997;SDS011;75314;48.120;11.534;2024-01-11T01:30:49;45.30;;;23.53;;
84997;SDS011;75314;48.120;11.534;2024-01-11T01:33:14;52.43;;;25.03;;
84997;SDS011;75314;48.120;11.534;2024-01-11T01:35:40;49.23;;;24.57;;
84997;SDS011;75314;48.120;11.534;2024-01-11T01:38:05;51.73;;;24.97;;
84997;SDS011;75314;48.120;11.534;2024-01-11T01:40:30;53.63;;;24.73;;
84997;SDS011;75314;48.120;11.534;2024-01-11T01:42:59;58.63;;;24.67;;
84997;SDS011;75314;48.120;11.534;2024-01-11T01:45:24;51.30;;;24.10;;
84997;SDS011;75314;48.120;11.534;2024-01-11T01:47:49;47.97;;;22.73;;
84997;SDS011;75314;48.120;11.534;2024-01-11T01:50:14;44.20;;;22.33;;
84997;SDS011;75314;48.120;11.534;2024-01-11T01:52:40;45.80;;;22.60;;
84997;SDS011;75314;48.120;11.534;2024-01-11T01:55:06;52.80;;;23.83;;
84997;SDS011;75314;48.120;11.534;2024-01-11T01:57:32;46.83;;;23.43;;
84997;SDS011;75314;48.120;11.534;2024-01-11T01:59:59;45.43;;;22.80;;
84997;SDS011;75314;48.120;11.534;2024-01-11T02:02:25;49.87;;;23.93;;
84997;SDS011;75314;48.120;11.534;2024-01-11T02:04:50;45.13;;;22.33;;
84997;SDS011;75314;48.120;11.534;2024-01-11T02:07:15;52.60;;;24.13;;
84997;SDS011;75314;48.120;11.534;2024-01-11T02:09:41;55.60;;;25.13;;
84997;SDS011;75314;48.120;11.534;2024-01-11T02:12:07;51.80;;;23.90;;
84997;SDS011;75314;48.120;11.534;2024-01-11T02:14:33;52.00;;;23.77;;
84997;SDS011;75314;48.120;11.534;2024-01-11T02:16:58;48.60;;;23.77;;
84997;SDS011;75314;48.120;11.534;2024-01-11T02:19:23;47.33;;;23.27;;
84997;SDS011;75314;48.120;11.534;2024-01-11T02:21:50;48.80;;;22.80;;
84997;SDS011;75314;48.120;11.534;2024-01-11T02:24:17;49.40;;;24.60;;
84997;SDS011;75314;48.120;11.534;2024-01-11T02:26:59;42.57;;;20.83;;
84997;SDS011;75314;48.120;11.534;2024-01-11T02:29:27;43.37;;;21.17;;
84997;SDS011;75314;48.120;11.534;2024-01-11T02:31:57;45.10;;;22.90;;
84997;SDS011;75314;48.120;11.534;2024-01-11T02:34:23;50.33;;;22.87;;
84997;SDS011;75314;48.120;11.534;2024-01-11T02:36:49;44.70;;;22.50;;
84997;SDS011;75314;48.120;11.534;2024-01-11T02:39:15;44.00;;;21.60;;
84997;SDS011;75314;48.120;11.534;2024-01-11T02:41:41;42.73;;;21.17;;
84997;SDS011;75314;48.120;11.534;2024-01-11T02:44:07;47.13;;;22.27;;
84997;SDS011;75314;48.120;11.534;2024-01-11T02:46:32;43.03;;;21.60;;
84997;SDS011;75314;48.120;11.534;2024-01-11T02:48:57;39.87;;;20.87;;
84997;SDS011;75314;48.120;11.534;2024-01-11T02:51:22;44.30;;;21.63;;
84997;SDS011;75314;48.120;11.534;2024-01-11T02:53:47;44.37;;;22.07;;
84997;SDS011;75314;48.120;11.534;2024-01-11T02:56:13;42.10;;;20.60;;
84997;SDS011;75314;48.120;11.534;2024-01-11T02:58:38;42.93;;;21.40;;
84997;SDS011;75314;48.120;11.534;2024-01-11T03:01:03;46.70;;;22.30;;
84997;SDS011;75314;48.120;11.534;2024-01-11T03:03:28;46.27;;;21.57;;
84997;SDS011;75314;48.120;11.534;2024-01-11T03:05:53;39.93;;;20.40;;
84997;SDS011;75314;48.120;11.534;2024-01-11T03:08:19;40.47;;;20.80;;
84997;SDS011;75314;48.120;11.534;2024-01-11T03:10:44;40.57;;;20.83;;
84997;SDS011;75314;48.120;11.534;2024-01-11T03:13:09;39.17;;;19.83;;
84997;SDS011;75314;48.120;11.534;2024-01-11T03:15:34;43.03;;;21.47;;
84997;SDS011;75314;48.120;11.534;2024-01-11T03:17:59;42.17;;;21.33;;
84997;SDS011;75314;48.120;11.534;2024-01-11T03:20:25;38.60;;;20.33;;
84997;SDS011;75314;48.120;11.534;2024-01-11T03:22:53;42.17;;;20.97;;
84997;SDS011;75314;48.120;11.534;2024-01-11T03:25:18;42.23;;;20.40;;
84997;SDS011;75314;48.120;11.534;2024-01-11T03:27:43;50.60;;;23.27;;
84997;SDS011;75314;48.120;11.534;2024-01-11T03:30:09;45.43;;;21.27;;
84997;SDS011;75314;48.120;11.534;2024-01-11T03:32:34;42.33;;;22.17;;
84997;SDS011;75314;48.120;11.534;2024-01-11T03:34:59;36.77;;;19.20;;
84997;SDS011;75314;48.120;11.534;2024-01-11T03:37:25;39.40;;;21.17;;
84997;SDS011;75314;48.120;11.534;2024-01-11T03:39:50;41.17;;;20.83;;
84997;SDS011;75314;48.120;11.534;2024-01-11T03:42:15;39.13;;;21.07;;
84997;SDS011;75314;48.120;11.534;2024-01-11T03:44:40;34.90;;;19.50;;
84997;SDS011;75314;48.120;11.534;2024-01-11T03:47:05;42.47;;;20.87;;
84997;SDS011;75314;48.120;11.534;2024-01-11T03:49:31;43.57;;;20.90;;
84997;SDS011;75314;48.120;11.534;2024-01-11T03:51:56;44.40;;;21.43;;
84997;SDS011;75314;48.120;11.534;2024-01-11T03:54:21;41.93;;;21.30;;
84997;SDS011;75314;48.120;11.534;2024-01-11T03:56:46;50.30;;;23.67;;
84997;SDS011;75314;48.120;11.534;2024-01-11T03:59:11;48.77;;;22.40;;
84997;SDS011;75314;48.120;11.534;2024-01-11T04:01:40;44.63;;;22.13;;
84997;SDS011;75314;48.120;11.534;2024-01-11T04:04:05;46.30;;;22.10;;
84997;SDS011;75314;48.120;11.534;2024-01-11T04:06:31;46.77;;;22.20;;
84997;SDS011;75314;48.120;11.534;2024-01-11T04:08:56;47.00;;;21.87;;
84997;SDS011;75314;48.120;11.534;2024-01-11T04:11:21;43.37;;;21.73;;
84997;SDS011;75314;48.120;11.534;2024-01-11T04:13:46;44.70;;;21.17;;
84997;SDS011;75314;48.120;11.534;2024-01-11T04:16:11;42.73;;;21.10;;
84997;SDS011;75314;48.120;11.534;2024-01-11T04:18:37;41.70;;;20.00;;
84997;SDS011;75314;48.120;11.534;2024-01-11T04:21:02;42.80;;;20.73;;
84997;SDS011;75314;48.120;11.534;2024-01-11T04:23:27;42.83;;;19.90;;
84997;SDS011;75314;48.120;11.534;2024-01-11T04:25:52;41.10;;;20.13;;
84997;SDS011;75314;48.120;11.534;2024-01-11T04:28:17;42.07;;;20.80;;
84997;SDS011;75314;48.120;11.534;2024-01-11T04:30:43;40.60;;;20.57;;
84997;SDS011;75314;48.120;11.534;2024-01-11T04:33:09;39.60;;;20.10;;
84997;SDS011;75314;48.120;11.534;2024-01-11T04:35:34;42.50;;;20.00;;
84997;SDS011;75314;48.120;11.534;2024-01-11T04:37:59;37.33;;;19.67;;
84997;SDS011;75314;48.120;11.534;2024-01-11T04:40:24;45.93;;;21.17;;
84997;SDS011;75314;48.120;11.534;2024-01-11T04:42:50;42.70;;;22.87;;
84997;SDS011;75314;48.120;11.534;2024-01-11T04:45:15;46.03;;;23.23;;
84997;SDS011;75314;48.120;11.534;2024-01-11T04:47:40;48.17;;;22.50;;
84997;SDS011;75314;48.120;11.534;2024-01-11T04:50:05;41.67;;;22.17;;
84997;SDS011;75314;48.120;11.534;2024-01-11T04:52:31;51.87;;;24.47;;
84997;SDS011;75314;48.120;11.534;2024-01-11T04:54:56;40.23;;;20.23;;
84997;SDS011;75314;48.120;11.534;2024-01-11T04:57:21;40.93;;;20.13;;
84997;SDS011;75314;48.120;11.534;2024-01-11T04:59:47;40.13;;;20.70;;
84997;SDS011;75314;48.120;11.534;2024-01-11T05:02:12;42.00;;;21.00;;
84997;SDS011;75314;48.120;11.534;2024-01-11T05:04:37;36.43;;;19.70;;
84997;SDS011;75314;48.120;11.534;2024-01-11T05:07:02;39.07;;;20.53;;
84997;SDS011;75314;48.120;11.534;2024-01-11T05:09:28;40.17;;;20.23;;
84997;SDS011;75314;48.120;11.534;2024-01-11T05:11:53;39.20;;;20.90;;
84997;SDS011;75314;48.120;11.534;2024-01-11T05:14:18;44.60;;;21.77;;
84997;SDS011;75314;48.120;11.534;2024-01-11T05:16:43;36.27;;;19.77;;
84997;SDS011;75314;48.120;11.534;2024-01-11T05:19:08;39.30;;;20.20;;
84997;SDS011;75314;48.120;11.534;2024-01-11T05:21:33;42.87;;;21.97;;
84997;SDS011;75314;48.120;11.534;2024-01-11T05:23:59;42.70;;;21.67;;
84997;SDS011;75314;48.120;11.534;2024-01-11T05:26:25;40.10;;;22.00;;
84997;SDS011;75314;48.120;11.534;2024-01-11T05:28:50;38.10;;;21.23;;
84997;SDS011;75314;48.120;11.534;2024-01-11T05:31:16;46.23;;;23.70;;
84997;SDS011;75314;48.120;11.534;2024-01-11T05:33:41;39.53;;;20.23;;
84997;SDS011;75314;48.120;11.534;2024-01-11T05:36:07;44.20;;;21.77;;
84997;SDS011;75314;48.120;11.534;2024-01-11T05:38:32;37.50;;;20.93;;
84997;SDS011;75314;48.120;11.534;2024-01-11T05:40:57;41.40;;;21.43;;
84997;SDS011;75314;48.120;11.534;2024-01-11T05:43:23;46.60;;;22.80;;
84997;SDS011;75314;48.120;11.534;2024-01-11T05:45:48;45.33;;;23.13;;
84997;SDS011;75314;48.120;11.534;2024-01-11T05:48:13;42.30;;;21.50;;
84997;SDS011;75314;48.120;11.534;2024-01-11T05:50:38;46.00;;;21.57;;
84997;SDS011;75314;48.120;11.534;2024-01-11T05:53:03;43.73;;;22.37;;
84997;SDS011;75314;48.120;11.534;2024-01-11T05:55:29;39.37;;;21.27;;
84997;SDS011;75314;48.120;11.534;2024-01-11T05:57:54;36.37;;;20.33;;
84997;SDS011;75314;48.120;11.534;2024-01-11T06:00:19;37.47;;;20.67;;
84997;SDS011;75314;48.120;11.534;2024-01-11T06:02:44;38.07;;;20.20;;
84997;SDS011;75314;48.120;11.534;2024-01-11T06:05:10;36.90;;;19.90;;
84997;SDS011;75314;48.120;11.534;2024-01-11T06:07:35;38.37;;;20.10;;
84997;SDS011;75314;48.120;11.534;2024-01-11T06:10:00;37.10;;;20.03;;
84997;SDS011;75314;48.120;11.534;2024-01-11T06:12:26;40.80;;;21.27;;
84997;SDS011;75314;48.120;11.534;2024-01-11T06:14:51;36.27;;;19.97;;
84997;SDS011;75314;48.120;11.534;2024-01-11T06:17:16;38.10;;;19.93;;
84997;SDS011;75314;48.120;11.534;2024-01-11T06:19:42;42.30;;;21.17;;
84997;SDS011;75314;48.120;11.534;2024-01-11T06:22:07;40.27;;;20.07;;
84997;SDS011;75314;48.120;11.534;2024-01-11T06:24:32;42.13;;;22.00;;
84997;SDS011;75314;48.120;11.534;2024-01-11T06:26:57;39.27;;;21.27;;
84997;SDS011;75314;48.120;11.534;2024-01-11T06:29:22;42.90;;;21.53;;
84997;SDS011;75314;48.120;11.534;2024-01-11T06:31:48;47.80;;;24.00;;
84997;SDS011;75314;48.120;11.534;2024-01-11T06:34:13;45.60;;;23.07;;
84997;SDS011;75314;48.120;11.534;2024-01-11T06:36:38;44.90;;;23.33;;
84997;SDS011;75314;48.120;11.534;2024-01-11T06:39:03;42.73;;;22.00;;
84997;SDS011;75314;48.120;11.534;2024-01-11T06:41:28;44.33;;;23.83;;
84997;SDS011;75314;48.120;11.534;2024-01-11T06:43:54;51.67;;;26.43;;
84997;SDS011;75314;48.120;11.534;2024-01-11T06:46:19;45.20;;;23.50;;
84997;SDS011;75314;48.120;11.534;2024-01-11T06:48:45;50.23;;;26.10;;
84997;SDS011;75314;48.120;11.534;2024-01-11T06:51:13;39.53;;;21.10;;
84997;SDS011;75314;48.120;11.534;2024-01-11T06:53:39;38.03;;;20.57;;
84997;SDS011;75314;48.120;11.534;2024-01-11T06:56:12;38.17;;;20.60;;
84997;SDS011;75314;48.120;11.534;2024-01-11T06:58:42;42.30;;;21.60;;
84997;SDS011;75314;48.120;11.534;2024-01-11T07:01:08;37.27;;;20.50;;
84997;SDS011;75314;48.120;11.534;2024-01-11T07:03:33;41.77;;;21.03;;
84997;SDS011;75314;48.120;11.534;2024-01-11T07:05:58;40.40;;;20.43;;
84997;SDS011;75314;48.120;11.534;2024-01-11T07:08:23;36.77;;;19.80;;
84997;SDS011;75314;48.120;11.534;2024-01-11T07:10:49;35.07;;;19.07;;
84997;SDS011;75314;48.120;11.534;2024-01-11T07:13:14;38.83;;;19.30;;
84997;SDS011;75314;48.120;11.534;2024-01-11T07:15:39;32.97;;;19.30;;
84997;SDS011;75314;48.120;11.534;2024-01-11T07:18:04;35.80;;;19.17;;
84997;SDS011;75314;48.120;11.534;2024-01-11T07:20:29;30.90;;;17.83;;
84997;SDS011;75314;48.120;11.534;2024-01-11T07:22:55;34.80;;;18.77;;
84997;SDS011;75314;48.120;11.534;2024-01-11T07:25:20;33.00;;;18.23;;
84997;SDS011;75314;48.120;11.534;2024-01-11T07:27:45;34.33;;;18.50;;
84997;SDS011;75314;48.120;11.534;2024-01-11T07:30:10;37.57;;;18.77;;
84997;SDS011;75314;48.120;11.534;2024-01-11T07:32:36;30.53;;;17.63;;
84997;SDS011;75314;48.120;11.534;2024-01-11T07:35:01;29.00;;;17.10;;
84997;SDS011;75314;48.120;11.534;2024-01-11T07:37:26;32.47;;;18.13;;
84997;SDS011;75314;48.120;11.534;2024-01-11T07:39:51;32.17;;;17.30;;
84997;SDS011;75314;48.120;11.534;2024-01-11T07:42:17;35.57;;;18.40;;
84997;SDS011;75314;48.120;11.534;2024-01-11T07:44:42;35.00;;;18.33;;
84997;SDS011;75314;48.120;11.534;2024-01-11T07:47:07;34.50;;;18.77;;
84997;SDS011;75314;48.120;11.534;2024-01-11T07:49:32;32.90;;;18.03;;
84997;SDS011;75314;48.120;11.534;2024-01-11T07:51:57;36.13;;;20.10;;
84997;SDS011;75314;48.120;11.534;2024-01-11T07:54:23;33.10;;;18.83;;
84997;SDS011;75314;48.120;11.534;2024-01-11T07:56:48;36.63;;;19.17;;
84997;SDS011;75314;48.120;11.534;2024-01-11T07:59:13;35.87;;;19.63;;
84997;SDS011;75314;48.120;11.534;2024-01-11T08:01:38;37.70;;;19.17;;
84997;SDS011;75314;48.120;11.534;2024-01-11T08:04:03;37.70;;;20.10;;
84997;SDS011;75314;48.120;11.534;2024-01-11T08:06:29;36.47;;;18.53;;
84997;SDS011;75314;48.120;11.534;2024-01-11T08:08:54;38.87;;;20.17;;
84997;SDS011;75314;48.120;11.534;2024-01-11T08:11:19;36.50;;;19.47;;
84997;SDS011;75314;48.120;11.534;2024-01-11T08:13:44;40.90;;;20.63;;
84997;SDS011;75314;48.120;11.534;2024-01-11T08:16:14;38.17;;;19.77;;
84997;SDS011;75314;48.120;11.534;2024-01-11T08:18:40;36.47;;;19.90;;
84997;SDS011;75314;48.120;11.534;2024-01-11T08:21:05;36.17;;;18.97;;
84997;SDS011;75314;48.120;11.534;2024-01-11T08:23:30;36.60;;;20.20;;
84997;SDS011;75314;48.120;11.534;2024-01-11T08:25:56;37.00;;;19.90;;
84997;SDS011;75314;48.120;11.534;2024-01-11T08:28:21;38.53;;;20.07;;
84997;SDS011;75314;48.120;11.534;2024-01-11T08:30:46;36.03;;;19.37;;
84997;SDS011;75314;48.120;11.534;2024-01-11T08:33:11;36.47;;;20.10;;
84997;SDS011;75314;48.120;11.534;2024-01-11T08:35:36;40.33;;;20.47;;
84997;SDS011;75314;48.120;11.534;2024-01-11T08:38:02;41.40;;;21.10;;
84997;SDS011;75314;48.120;11.534;2024-01-11T08:40:27;41.33;;;21.17;;
84997;SDS011;75314;48.120;11.534;2024-01-11T08:42:52;38.73;;;21.67;;
84997;SDS011;75314;48.120;11.534;2024-01-11T08:45:17;37.80;;;20.93;;
84997;SDS011;75314;48.120;11.534;2024-01-11T08:47:46;42.83;;;22.83;;
84997;SDS011;75314;48.120;11.534;2024-01-11T08:50:15;39.47;;;20.63;;
84997;SDS011;75314;48.120;11.534;2024-01-11T08:52:41;49.03;;;25.03;;
84997;SDS011;75314;48.120;11.534;2024-01-11T08:55:06;43.07;;;22.30;;
84997;SDS011;75314;48.120;11.534;2024-01-11T08:57:32;42.87;;;22.13;;
84997;SDS011;75314;48.120;11.534;2024-01-11T08:59:57;49.87;;;22.67;;
84997;SDS011;75314;48.120;11.534;2024-01-11T09:02:22;46.07;;;24.47;;
84997;SDS011;75314;48.120;11.534;2024-01-11T09:04:48;42.27;;;22.63;;
84997;SDS011;75314;48.120;11.534;2024-01-11T09:07:13;41.37;;;22.47;;
84997;SDS011;75314;48.120;11.534;2024-01-11T09:09:39;43.80;;;22.10;;
84997;SDS011;75314;48.120;11.534;2024-01-11T09:12:04;45.97;;;23.03;;
84997;SDS011;75314;48.120;11.534;2024-01-11T09:14:30;44.63;;;23.43;;
84997;SDS011;75314;48.120;11.534;2024-01-11T09:16:55;42.90;;;23.67;;
84997;SDS011;75314;48.120;11.534;2024-01-11T09:19:20;46.33;;;24.73;;
84997;SDS011;75314;48.120;11.534;2024-01-11T09:21:45;47.73;;;24.93;;
84997;SDS011;75314;48.120;11.534;2024-01-11T09:24:10;48.90;;;24.87;;
84997;SDS011;75314;48.120;11.534;2024-01-11T09:26:36;42.47;;;23.00;;
84997;SDS011;75314;48.120;11.534;2024-01-11T09:29:01;49.70;;;25.60;;
84997;SDS011;75314;48.120;11.534;2024-01-11T09:31:26;60.43;;;30.10;;
84997;SDS011;75314;48.120;11.534;2024-01-11T09:33:52;67.63;;;32.17;;
84997;SDS011;75314;48.120;11.534;2024-01-11T09:36:17;68.17;;;32.40;;
84997;SDS011;75314;48.120;11.534;2024-01-11T09:38:42;66.53;;;33.17;;
84997;SDS011;75314;48.120;11.534;2024-01-11T09:41:08;64.30;;;32.53;;
84997;SDS011;75314;48.120;11.534;2024-01-11T09:43:36;68.10;;;33.13;;
84997;SDS011;75314;48.120;11.534;2024-01-11T09:46:05;71.23;;;35.37;;
84997;SDS011;75314;48.120;11.534;2024-01-11T09:48:32;71.30;;;34.87;;
84997;SDS011;75314;48.120;11.534;2024-01-11T09:50:58;67.00;;;33.63;;
84997;SDS011;75314;48.120;11.534;2024-01-11T09:53:24;67.37;;;34.23;;
84997;SDS011;75314;48.120;11.534;2024-01-11T09:55:49;68.37;;;34.33;;
84997;SDS011;75314;48.120;11.534;2024-01-11T09:58:15;73.27;;;33.90;;
84997;SDS011;75314;48.120;11.534;2024-01-11T10:00:40;71.90;;;34.00;;
84997;SDS011;75314;48.120;11.534;2024-01-11T10:03:06;67.00;;;33.80;;
84997;SDS011;75314;48.120;11.534;2024-01-11T10:05:31;69.57;;;34.67;;
84997;SDS011;75314;48.120;11.534;2024-01-11T10:07:58;73.33;;;34.73;;
84997;SDS011;75314;48.120;11.534;2024-01-11T10:10:23;71.33;;;33.57;;
84997;SDS011;75314;48.120;11.534;2024-01-11T10:12:48;74.50;;;34.73;;
84997;SDS011;75314;48.120;11.534;2024-01-11T10:15:13;73.37;;;34.70;;
84997;SDS011;75314;48.120;11.534;2024-01-11T10:17:42;70.17;;;34.47;;
84997;SDS011;75314;48.120;11.534;2024-01-11T10:20:08;65.23;;;33.00;;
84997;SDS011;75314;48.120;11.534;2024-01-11T10:22:33;64.67;;;34.13;;
84997;SDS011;75314;48.120;11.534;2024-01-11T10:25:12;75.17;;;36.87;;
84997;SDS011;75314;48.120;11.534;2024-01-11T10:27:39;67.57;;;35.10;;
84997;SDS011;75314;48.120;11.534;2024-01-11T10:30:05;71.40;;;35.10;;
84997;SDS011;75314;48.120;11.534;2024-01-11T10:32:30;71.57;;;35.30;;
84997;SDS011;75314;48.120;11.534;2024-01-11T10:34:56;63.93;;;33.37;;
84997;SDS011;75314;48.120;11.534;2024-01-11T10:37:21;69.87;;;32.20;;
84997;SDS011;75314;48.120;11.534;2024-01-11T10:39:47;69.27;;;32.73;;
84997;SDS011;75314;48.120;11.534;2024-01-11T10:42:13;66.70;;;34.17;;
84997;SDS011;75314;48.120;11.534;2024-01-11T10:44:40;69.53;;;32.50;;
84997;SDS011;75314;48.120;11.534;2024-01-11T10:47:07;70.13;;;34.00;;
84997;SDS011;75314;48.120;11.534;2024-01-11T10:49:34;61.57;;;30.50;;
84997;SDS011;75314;48.120;11.534;2024-01-11T10:52:04;74.07;;;35.10;;
84997;SDS011;75314;48.120;11.534;2024-01-11T10:54:30;69.20;;;35.80;;
84997;SDS011;75314;48.120;11.534;2024-01-11T10:56:56;75.40;;;34.83;;
84997;SDS011;75314;48.120;11.534;2024-01-11T10:59:23;72.47;;;34.97;;
84997;SDS011;75314;48.120;11.534;2024-01-11T11:01:49;82.37;;;35.07;;
84997;SDS011;75314;48.120;11.534;2024-01-11T11:04:14;76.63;;;36.63;;
84997;SDS011;75314;48.120;11.534;2024-01-11T11:06:40;73.40;;;35.27;;
84997;SDS011;75314;48.120;11.534;2024-01-11T11:09:06;66.63;;;33.73;;
84997;SDS011;75314;48.120;11.534;2024-01-11T11:11:32;67.90;;;32.43;;
84997;SDS011;75314;48.120;11.534;2024-01-11T11:13:58;71.43;;;33.43;;
84997;SDS011;75314;48.120;11.534;2024-01-11T11:16:25;68.00;;;32.90;;
84997;SDS011;75314;48.120;11.534;2024-01-11T11:18:52;64.47;;;32.40;;
84997;SDS011;75314;48.120;11.534;2024-01-11T11:21:18;63.77;;;31.23;;
84997;SDS011;75314;48.120;11.534;2024-01-11T11:23:45;76.57;;;36.47;;
84997;SDS011;75314;48.120;11.534;2024-01-11T11:26:14;66.30;;;34.33;;
84997;SDS011;75314;48.120;11.534;2024-01-11T11:28:39;65.57;;;33.60;;
84997;SDS011;75314;48.120;11.534;2024-01-11T11:31:05;72.70;;;34.17;;
84997;SDS011;75314;48.120;11.534;2024-01-11T11:33:30;63.13;;;33.27;;
84997;SDS011;75314;48.120;11.534;2024-01-11T11:35:57;67.00;;;34.37;;
84997;SDS011;75314;48.120;11.534;2024-01-11T11:38:23;75.70;;;35.97;;
84997;SDS011;75314;48.120;11.534;2024-01-11T11:40:51;73.87;;;35.00;;
84997;SDS011;75314;48.120;11.534;2024-01-11T11:43:17;71.63;;;34.67;;
84997;SDS011;75314;48.120;11.534;2024-01-11T11:45:46;71.70;;;34.03;;
84997;SDS011;75314;48.120;11.534;2024-01-11T11:51:05;84.33;;;37.77;;
84997;SDS011;75314;48.120;11.534;2024-01-11T11:53:37;88.77;;;41.43;;
84997;SDS011;75314;48.120;11.534;2024-01-11T11:56:04;79.20;;;36.83;;
84997;SDS011;75314;48.120;11.534;2024-01-11T11:58:29;70.10;;;36.07;;
84997;SDS011;75314;48.120;11.534;2024-01-11T12:00:55;76.93;;;36.13;;
84997;SDS011;75314;48.120;11.534;2024-01-11T12:03:32;75.43;;;34.67;;
84997;SDS011;75314;48.120;11.534;2024-01-11T12:05:59;65.77;;;32.67;;
84997;SDS011;75314;48.120;11.534;2024-01-11T12:08:25;69.47;;;34.13;;
84997;SDS011;75314;48.120;11.534;2024-01-11T12:10:51;66.50;;;33.63;;
84997;SDS011;75314;48.120;11.534;2024-01-11T12:13:20;64.83;;;33.43;;
84997;SDS011;75314;48.120;11.534;2024-01-11T12:15:45;64.93;;;32.30;;
84997;SDS011;75314;48.120;11.534;2024-01-11T12:18:11;65.73;;;34.23;;
84997;SDS011;75314;48.120;11.534;2024-01-11T12:20:36;67.90;;;32.57;;
84997;SDS011;75314;48.120;11.534;2024-01-11T12:23:02;62.57;;;30.60;;
84997;SDS011;75314;48.120;11.534;2024-01-11T12:25:27;70.93;;;34.03;;
84997;SDS011;75314;48.120;11.534;2024-01-11T12:27:52;67.87;;;33.83;;
84997;SDS011;75314;48.120;11.534;2024-01-11T12:30:18;64.27;;;32.07;;
84997;SDS011;75314;48.120;11.534;2024-01-11T12:32:43;71.47;;;34.67;;
84997;SDS011;75314;48.120;11.534;2024-01-11T12:35:08;63.73;;;31.00;;
84997;SDS011;75314;48.120;11.534;2024-01-11T12:37:34;64.23;;;32.47;;
84997;SDS011;75314;48.120;11.534;2024-01-11T12:39:59;66.27;;;31.60;;
84997;SDS011;75314;48.120;11.534;2024-01-11T12:42:27;64.10;;;30.90;;
84997;SDS011;75314;48.120;11.534;2024-01-11T12:44:53;69.57;;;34.43;;
84997;SDS011;75314;48.120;11.534;2024-01-11T12:47:18;61.57;;;30.07;;
84997;SDS011;75314;48.120;11.534;2024-01-11T12:49:43;61.50;;;31.17;;
84997;SDS011;75314;48.120;11.534;2024-01-11T12:52:14;63.00;;;32.27;;
84997;SDS011;75314;48.120;11.534;2024-01-11T12:54:41;64.13;;;33.80;;
84997;SDS011;75314;48.120;11.534;2024-01-11T12:57:06;61.60;;;31.33;;
84997;SDS011;75314;48.120;11.534;2024-01-11T12:59:31;62.27;;;31.77;;
84997;SDS011;75314;48.120;11.534;2024-01-11T13:01:56;64.93;;;33.23;;
84997;SDS011;75314;48.120;11.534;2024-01-11T13:04:22;62.17;;;31.97;;
84997;SDS011;75314;48.120;11.534;2024-01-11T13:06:47;65.70;;;32.80;;
84997;SDS011;75314;48.120;11.534;2024-01-11T13:09:13;65.53;;;33.73;;
84997;SDS011;75314;48.120;11.534;2024-01-11T13:11:38;64.73;;;32.23;;
84997;SDS011;75314;48.120;11.534;2024-01-11T13:14:03;63.37;;;32.43;;
84997;SDS011;75314;48.120;11.534;2024-01-11T13:16:28;60.57;;;30.70;;
84997;SDS011;75314;48.120;11.534;2024-01-11T13:18:53;62.27;;;30.77;;
84997;SDS011;75314;48.120;11.534;2024-01-11T13:21:19;64.30;;;33.33;;
84997;SDS011;75314;48.120;11.534;2024-01-11T13:23:44;64.00;;;32.90;;
84997;SDS011;75314;48.120;11.534;2024-01-11T13:26:09;66.13;;;33.90;;
84997;SDS011;75314;48.120;11.534;2024-01-11T13:28:34;69.30;;;33.83;;
84997;SDS011;75314;48.120;11.534;2024-01-11T13:30:59;68.47;;;34.37;;
84997;SDS011;75314;48.120;11.534;2024-01-11T13:33:25;65.60;;;33.03;;
84997;SDS011;75314;48.120;11.534;2024-01-11T13:35:50;61.47;;;32.43;;
84997;SDS011;75314;48.120;11.534;2024-01-11T13:38:15;68.70;;;34.33;;
84997;SDS011;75314;48.120;11.534;2024-01-11T13:40:40;66.97;;;34.37;;
84997;SDS011;75314;48.120;11.534;2024-01-11T13:43:06;62.60;;;33.33;;
84997;SDS011;75314;48.120;11.534;2024-01-11T13:45:31;69.90;;;35.53;;
84997;SDS011;75314;48.120;11.534;2024-01-11T13:47:56;69.23;;;36.23;;
84997;SDS011;75314;48.120;11.534;2024-01-11T13:50:22;68.57;;;34.23;;
84997;SDS011;75314;48.120;11.534;2024-01-11T13:52:48;71.03;;;35.70;;
84997;SDS011;75314;48.120;11.534;2024-01-11T13:55:13;70.53;;;35.27;;
84997;SDS011;75314;48.120;11.534;2024-01-11T13:57:38;68.73;;;34.80;;
84997;SDS011;75314;48.120;11.534;2024-01-11T14:00:04;77.87;;;35.30;;
84997;SDS011;75314;48.120;11.534;2024-01-11T14:02:30;65.77;;;35.07;;